Time;durP1;ratioP1;P1;durP2;ratioP2;P2;SDS_P1;SDS_P2;PMS_P1;PMS_P2;Temp;Humidity;BMP_temperature;BMP_pressure;BME280_temperature;BME280_humidity;BME280_pressure;Samples;Min_cycle;Max_cycle;Signal;HPM_P1;HPM_P2
2023/07/24 00:01:56;;;;;;;9.80;5.60;;;;;;;17.94;69.13;99626.81;107359;1260;72493;-77
2023/07/24 00:04:24;;;;;;;7.10;5.50;;;;;;;17.91;68.88;99623.84;106206;1261;68972;-78
2023/07/24 00:06:51;;;;;;;7.70;6.30;;;;;;;17.87;68.91;99621.39;106003;1260;71009;-77
2023/07/24 00:09:19;;;;;;;7.30;5.70;;;;;;;17.83;69.12;99622.69;106018;1261;60536;-76
2023/07/24 00:11:46;;;;;;;9.50;6.30;;;;;;;17.77;69.34;99619.53;105873;1259;60541;-76
2023/07/24 00:14:15;;;;;;;9.00;5.90;;;;;;;17.75;69.56;99616.98;105877;1259;72843;-79
2023/07/24 00:16:42;;;;;;;7.00;6.30;;;;;;;17.72;69.95;99614.52;106317;1260;68808;-74
2023/07/24 00:19:10;;;;;;;8.20;6.30;;;;;;;17.67;70.12;99614.27;105983;1263;71598;-77
2023/07/24 00:21:37;;;;;;;8.70;5.10;;;;;;;17.69;70.15;99613.27;106213;1261;60471;-76
2023/07/24 00:24:05;;;;;;;13.50;6.90;;;;;;;17.71;70.22;99612.50;106299;1266;60136;-77
2023/07/24 00:26:32;;;;;;;6.50;5.60;;;;;;;17.66;70.27;99611.96;106171;1259;75747;-76
2023/07/24 00:29:00;;;;;;;8.90;6.30;;;;;;;17.61;70.39;99606.46;106854;1263;68736;-74
2023/07/24 00:31:28;;;;;;;6.70;5.90;;;;;;;17.55;70.47;99603.48;107737;1261;71071;-74
2023/07/24 00:33:56;;;;;;;8.50;6.40;;;;;;;17.51;70.53;99599.92;105960;1262;60923;-75
2023/07/24 00:36:23;;;;;;;7.70;5.90;;;;;;;17.48;70.74;99598.45;105739;1260;60549;-76
2023/07/24 00:38:50;;;;;;;7.50;5.90;;;;;;;17.44;70.71;99594.30;105528;1259;72880;-74
2023/07/24 00:41:18;;;;;;;8.10;6.60;;;;;;;17.41;70.68;99593.14;105500;1261;68959;-76
2023/07/24 00:43:45;;;;;;;7.10;5.70;;;;;;;17.39;70.74;99593.77;105430;1264;71509;-75
2023/07/24 00:46:13;;;;;;;7.30;5.60;;;;;;;17.45;70.43;99598.42;105558;1263;60425;-75
2023/07/24 00:48:40;;;;;;;6.90;6.10;;;;;;;17.48;70.21;99587.48;105425;1261;60528;-75
2023/07/24 00:51:08;;;;;;;7.70;5.90;;;;;;;17.47;70.21;99589.45;105696;1261;73644;-74
2023/07/24 00:53:35;;;;;;;8.40;5.90;;;;;;;17.44;70.13;99586.34;105508;1266;69423;-75
2023/07/24 00:56:03;;;;;;;7.40;5.70;;;;;;;17.43;70.16;99585.04;105564;1264;71458;-75
2023/07/24 00:58:31;;;;;;;8.10;5.70;;;;;;;17.42;70.20;99582.10;105923;1261;60517;-75
2023/07/24 01:00:59;;;;;;;8.30;6.00;;;;;;;17.40;70.13;99580.62;106582;1260;62023;-74
2023/07/24 01:03:32;;;;;;;11.70;5.80;;;;;;;17.37;69.92;99580.59;106867;1265;72735;-74
2023/07/24 01:06:03;;;;;;;10.30;5.20;;;;;;;17.36;69.86;99580.27;105643;1264;71221;-78
2023/07/24 01:08:31;;;;;;;10.10;5.70;;;;;;;17.35;69.79;99578.41;105566;1264;71437;-75
2023/07/24 01:11:12;;;;;;;6.20;5.30;;;;;;;17.34;69.86;99576.73;105446;1261;61617;-73
2023/07/24 01:13:42;;;;;;;11.00;5.50;;;;;;;17.41;69.66;99577.76;105398;1261;60569;-76
2023/07/24 01:16:12;;;;;;;9.90;5.50;;;;;;;17.45;69.48;99578.44;105548;1261;73753;-76
2023/07/24 01:18:40;;;;;;;8.60;5.40;;;;;;;17.41;69.55;99578.55;105446;1264;70077;-76
2023/07/24 01:21:08;;;;;;;6.00;5.00;;;;;;;17.38;69.52;99574.77;105290;1266;72726;-73
2023/07/24 01:23:52;;;;;;;8.50;5.80;;;;;;;17.35;69.62;99579.77;105300;1264;60543;-75
2023/07/24 01:26:20;;;;;;;6.60;4.90;;;;;;;17.32;69.66;99576.91;105398;1261;60318;-75
2023/07/24 01:28:48;;;;;;;7.50;5.40;;;;;;;17.28;69.39;99578.79;106065;1263;76283;-73
2023/07/24 01:31:17;;;;;;;7.20;4.90;;;;;;;17.26;69.31;99578.13;106762;1260;70405;-76
2023/07/24 01:33:44;;;;;;;5.70;5.00;;;;;;;17.25;69.28;99576.16;106800;1260;72525;-74
2023/07/24 01:36:17;;;;;;;10.80;4.90;;;;;;;17.25;69.13;99580.88;105449;1264;60463;-76
2023/07/24 01:38:44;;;;;;;7.10;5.30;;;;;;;17.24;69.16;99583.02;105602;1266;60442;-75
2023/07/24 01:41:12;;;;;;;8.00;4.90;;;;;;;17.22;69.20;99587.31;106352;1264;73853;-77
2023/07/24 01:43:39;;;;;;;7.20;5.60;;;;;;;17.22;69.19;99584.64;106543;1265;68720;-78
2023/07/24 01:46:08;;;;;;;8.00;5.50;;;;;;;17.29;69.04;99587.23;105927;1261;71534;-79
2023/07/24 01:48:36;;;;;;;6.20;4.80;;;;;;;17.29;68.74;99593.10;105770;1265;60517;-77
2023/07/24 01:51:03;;;;;;;9.20;4.70;;;;;;;17.28;68.67;99592.13;107156;1263;60309;-77
2023/07/24 01:53:31;;;;;;;7.30;5.00;;;;;;;17.26;68.63;99590.29;108058;1261;72871;-81
2023/07/24 01:55:58;;;;;;;8.90;5.80;;;;;;;17.25;68.58;99595.00;107616;1260;68711;-78
2023/07/24 01:58:26;;;;;;;7.00;6.10;;;;;;;17.25;68.52;99596.45;107844;1259;71661;-81
2023/07/24 02:00:57;;;;;;;6.90;6.00;;;;;;;17.25;68.03;99598.23;108486;1259;60339;-80
2023/07/24 02:03:24;;;;;;;9.00;6.30;;;;;;;17.26;67.83;99596.11;108872;1260;58751;-78
2023/07/24 02:05:52;;;;;;;7.80;5.40;;;;;;;17.28;67.47;99599.35;107674;1259;71711;-76
2023/07/24 02:08:20;;;;;;;6.50;5.10;;;;;;;17.30;67.44;99596.20;105760;1259;70577;-81
2023/07/24 02:10:50;;;;;;;5.60;5.10;;;;;;;17.31;67.33;99597.73;106557;1259;71056;-81
2023/07/24 02:13:18;;;;;;;6.60;4.90;;;;;;;17.31;67.22;99596.48;107547;1260;60553;-82
2023/07/24 02:15:49;;;;;;;7.60;4.90;;;;;;;17.31;66.93;99603.48;107153;1259;60287;-80
2023/07/24 02:18:18;;;;;;;8.20;4.50;;;;;;;17.32;66.58;99605.49;107522;1260;72583;-83
2023/07/24 02:20:50;;;;;;;5.50;4.80;;;;;;;17.34;66.62;99608.49;106394;1260;72192;-84
2023/07/24 02:23:18;;;;;;;5.40;4.70;;;;;;;17.34;66.37;99602.84;105725;1263;71366;-81
2023/07/24 02:25:50;;;;;;;6.60;4.80;;;;;;;17.34;66.32;99602.05;105871;1261;60484;-82
2023/07/24 02:28:18;;;;;;;5.70;5.10;;;;;;;17.34;66.31;99601.73;105982;1260;60491;-80
2023/07/24 02:30:49;;;;;;;6.00;4.40;;;;;;;17.33;66.34;99601.44;107077;1259;72633;-83
2023/07/24 02:33:16;;;;;;;5.90;4.50;;;;;;;17.33;66.32;99604.00;108550;1264;69579;-80
2023/07/24 02:35:44;;;;;;;7.10;5.30;;;;;;;17.33;66.32;99605.73;106043;1264;72853;-80
2023/07/24 02:38:11;;;;;;;5.30;4.80;;;;;;;17.33;66.41;99609.62;105590;1260;60552;-82
2023/07/24 02:40:40;;;;;;;8.20;5.20;;;;;;;17.33;66.38;99610.95;105823;1260;60522;-81
2023/07/24 02:43:08;;;;;;;8.70;4.80;;;;;;;17.32;66.18;99611.02;105827;1259;74102;-79
2023/07/24 02:45:37;;;;;;;5.70;5.00;;;;;;;17.33;66.20;99610.41;105949;1261;70128;-81
2023/07/24 02:48:05;;;;;;;6.10;4.80;;;;;;;17.33;66.29;99609.66;106381;1260;71424;-78
2023/07/24 02:50:33;;;;;;;6.40;4.90;;;;;;;17.33;66.29;99608.84;106710;1263;60463;-83
2023/07/24 02:53:00;;;;;;;5.60;4.90;;;;;;;17.32;66.15;99608.34;106670;1259;60354;-80
2023/07/24 02:55:30;;;;;;;5.20;4.70;;;;;;;17.33;66.10;99607.84;106914;1261;73028;-81
2023/07/24 02:57:58;;;;;;;6.30;4.70;;;;;;;17.36;66.19;99604.64;106770;1259;70361;-77
2023/07/24 03:00:26;;;;;;;8.40;4.60;;;;;;;17.37;65.96;99602.93;107494;1259;72804;-80
2023/07/24 03:02:53;;;;;;;4.80;4.30;;;;;;;17.41;65.89;99596.15;109014;1259;57910;-80
2023/07/24 03:05:21;;;;;;;5.20;4.70;;;;;;;17.45;65.88;99593.72;106364;1260;60633;-77
2023/07/24 03:07:51;;;;;;;7.40;5.40;;;;;;;17.50;65.58;99596.29;105636;1259;72638;-78
2023/07/24 03:10:20;;;;;;;5.60;4.70;;;;;;;17.55;65.51;99598.20;105637;1263;68577;-79
2023/07/24 03:12:47;;;;;;;8.90;7.10;;;;;;;17.58;65.44;99605.45;105643;1260;71425;-76
2023/07/24 03:15:15;;;;;;;4.90;4.40;;;;;;;17.60;65.31;99601.23;105472;1261;60412;-80
2023/07/24 03:17:42;;;;;;;6.50;4.40;;;;;;;17.61;65.19;99602.98;105621;1260;61037;-80
2023/07/24 03:20:15;;;;;;;6.80;4.30;;;;;;;17.62;65.19;99603.39;106314;1260;72495;-83
2023/07/24 03:22:43;;;;;;;8.20;4.50;;;;;;;17.64;65.13;99598.21;107151;1260;68720;-82
2023/07/24 03:25:10;;;;;;;4.40;3.80;;;;;;;17.67;65.04;99593.56;106360;1261;71392;-82
2023/07/24 03:27:38;;;;;;;4.70;4.20;;;;;;;17.71;65.10;99599.25;105896;1259;60528;-80
2023/07/24 03:30:06;;;;;;;6.70;4.00;;;;;;;17.75;65.06;99598.23;106496;1265;60374;-80
2023/07/24 03:32:37;;;;;;;7.10;4.60;;;;;;;17.78;65.15;99596.63;108411;1258;72616;-80
2023/07/24 03:35:06;;;;;;;5.80;5.10;;;;;;;17.84;65.11;99595.48;107374;1259;71056;-81
2023/07/24 03:37:34;;;;;;;9.90;7.70;;;;;;;17.88;64.99;99592.19;105829;1259;72141;-80
2023/07/24 03:40:01;;;;;;;7.90;4.70;;;;;;;17.91;64.90;99585.73;105605;1260;60930;-79
2023/07/24 03:42:30;;;;;;;5.50;4.40;;;;;;;17.95;64.87;99584.77;105595;1259;60600;-76
2023/07/24 03:44:58;;;;;;;4.90;3.80;;;;;;;17.98;64.75;99584.13;105493;1265;72387;-79
2023/07/24 03:47:26;;;;;;;4.80;4.00;;;;;;;18.03;64.64;99578.84;105656;1263;67970;-82
2023/07/24 03:49:53;;;;;;;6.70;4.70;;;;;;;18.06;64.61;99575.17;105682;1264;71395;-81
2023/07/24 03:52:21;;;;;;;7.00;4.30;;;;;;;18.14;64.68;99577.98;105562;1259;60489;-78
2023/07/24 03:54:48;;;;;;;4.90;4.40;;;;;;;18.21;64.54;99580.73;105821;1260;60361;-79
2023/07/24 03:57:16;;;;;;;5.20;4.60;;;;;;;18.29;64.38;99580.50;106543;1263;73889;-80
2023/07/24 03:59:44;;;;;;;4.80;4.40;;;;;;;18.37;63.98;99576.89;108109;1259;68604;-78
2023/07/24 04:02:11;;;;;;;6.00;5.00;;;;;;;18.49;63.71;99578.83;108886;1259;71484;-78
2023/07/24 04:04:39;;;;;;;10.30;4.50;;;;;;;18.60;63.56;99575.64;108529;1259;58772;-80
2023/07/24 04:07:06;;;;;;;5.80;4.90;;;;;;;18.69;63.38;99573.89;107830;1260;59031;-80
2023/07/24 04:09:34;;;;;;;6.40;5.00;;;;;;;18.79;63.28;99576.54;106593;1262;73114;-79
2023/07/24 04:12:01;;;;;;;5.30;4.80;;;;;;;18.89;63.11;99577.30;105530;1263;68802;-80
2023/07/24 04:14:29;;;;;;;9.30;5.20;;;;;;;18.96;62.85;99578.49;105537;1259;71446;-80
2023/07/24 04:16:56;;;;;;;7.80;4.50;;;;;;;19.04;62.56;99571.44;105520;1259;60490;-83
2023/07/24 04:19:24;;;;;;;4.80;4.40;;;;;;;19.12;62.53;99574.73;105833;1260;60441;-84
2023/07/24 04:21:51;;;;;;;6.80;5.00;;;;;;;19.19;62.34;99566.44;105852;1259;72571;-79
2023/07/24 04:24:19;;;;;;;7.80;4.70;;;;;;;19.23;62.10;99566.61;105856;1258;68825;-78
2023/07/24 04:26:46;;;;;;;5.30;4.80;;;;;;;19.28;62.13;99560.91;105973;1261;70961;-80
2023/07/24 04:29:14;;;;;;;5.80;4.50;;;;;;;19.33;61.98;99561.39;106529;1259;59357;-80
2023/07/24 04:31:41;;;;;;;5.70;4.70;;;;;;;19.40;61.58;99560.78;108363;1259;60301;-75
2023/07/24 04:34:09;;;;;;;7.90;4.70;;;;;;;19.45;61.51;99555.48;106481;1261;72582;-76
2023/07/24 04:36:36;;;;;;;5.40;4.40;;;;;;;19.48;61.51;99559.55;105583;1260;69061;-79
2023/07/24 04:39:04;;;;;;;7.40;4.50;;;;;;;19.48;61.50;99558.14;105633;1265;73171;-78
2023/07/24 04:41:31;;;;;;;7.00;4.80;;;;;;;19.49;61.35;99560.70;105746;1259;60536;-78
2023/07/24 04:43:59;;;;;;;5.60;4.60;;;;;;;19.51;61.28;99556.88;105566;1260;60595;-76
2023/07/24 04:46:26;;;;;;;5.20;4.70;;;;;;;19.53;61.07;99556.77;105575;1259;73709;-78
2023/07/24 04:48:54;;;;;;;7.50;5.00;;;;;;;19.55;60.89;99561.18;105573;1263;71562;-76
2023/07/24 04:51:22;;;;;;;6.30;4.50;;;;;;;19.57;60.92;99556.96;105731;1263;71425;-77
2023/07/24 04:53:49;;;;;;;5.50;4.70;;;;;;;19.60;60.58;99557.63;105764;1259;60697;-74
2023/07/24 04:56:17;;;;;;;5.30;3.80;;;;;;;19.63;60.43;99560.05;105802;1259;240943;-77
2023/07/24 05:00:08;;;;;;;5.30;4.50;;;;;;;19.75;60.15;99548.86;104068;1293;600990;-80
2023/07/24 05:02:34;;;;;;;5.40;4.60;;;;;;;19.96;59.39;99548.06;108470;1266;59108;-78
2023/07/24 05:05:03;;;;;;;5.50;4.30;;;;;;;20.15;58.92;99542.52;105548;1273;59385;-75
2023/07/24 05:07:30;;;;;;;6.70;4.40;;;;;;;20.26;58.11;99542.52;105690;1270;72062;-75
2023/07/24 05:09:57;;;;;;;5.70;4.20;;;;;;;20.32;58.37;99537.57;106043;1266;70765;-81
2023/07/24 05:12:24;;;;;;;4.90;4.40;;;;;;;20.38;58.10;99532.64;108253;1253;182825;-81
2023/07/24 05:14:50;;;;;;;5.00;4.50;;;;;;;20.49;57.97;99529.57;108140;1253;59558;-81
2023/07/24 05:17:17;;;;;;;7.00;4.50;;;;;;;20.59;57.60;99532.35;108417;1251;60112;-82
2023/07/24 05:19:44;;;;;;;6.30;4.60;;;;;;;20.68;56.75;99528.63;108505;1252;70943;-83
2023/07/24 05:22:10;;;;;;;7.80;4.30;;;;;;;20.73;56.56;99533.43;108961;1252;68715;-80
2023/07/24 05:24:37;;;;;;;5.80;4.10;;;;;;;20.79;56.46;99541.21;108675;1256;71417;-77
2023/07/24 05:27:05;;;;;;;9.40;4.40;;;;;;;20.83;55.52;99538.16;108899;1252;59001;-77
2023/07/24 05:29:31;;;;;;;8.00;4.70;;;;;;;20.89;56.30;99534.40;109482;1252;58947;-75
2023/07/24 05:31:58;;;;;;;9.70;5.00;;;;;;;20.95;55.94;99530.56;109593;1252;71815;-80
2023/07/24 05:34:25;;;;;;;5.80;4.30;;;;;;;21.03;56.11;99528.70;108013;1256;69024;-80
2023/07/24 05:36:52;;;;;;;5.30;4.10;;;;;;;21.10;56.14;99524.30;106995;1250;74223;-79
2023/07/24 05:39:18;;;;;;;4.70;3.90;;;;;;;21.16;55.83;99529.27;106881;1255;59743;-81
2023/07/24 05:41:47;;;;;;;8.90;4.50;;;;;;;21.19;55.68;99521.34;106613;1251;60176;-79
2023/07/24 05:44:13;;;;;;;6.80;4.80;;;;;;;21.22;55.66;99519.00;106724;1252;71575;-80
2023/07/24 05:46:40;;;;;;;5.70;4.00;;;;;;;21.23;55.32;99519.02;108906;1250;58698;-78
2023/07/24 05:49:07;;;;;;;5.70;4.20;;;;;;;21.27;55.41;99517.27;108579;1252;71433;-81
2023/07/24 05:51:34;;;;;;;5.40;4.30;;;;;;;21.31;55.69;99513.38;108810;1253;60213;-79
2023/07/24 05:54:02;;;;;;;5.50;4.60;;;;;;;21.41;55.54;99524.04;109144;1252;58854;-75
2023/07/24 05:56:30;;;;;;;6.50;4.90;;;;;;;21.50;55.19;99520.20;108841;1253;71754;-75
2023/07/24 05:58:57;;;;;;;7.70;4.70;;;;;;;21.56;54.98;99519.21;108989;1253;70358;-76
2023/07/24 06:01:24;;;;;;;5.70;4.20;;;;;;;21.61;54.97;99510.44;109396;1251;58171;-75
2023/07/24 06:03:50;;;;;;;7.90;4.40;;;;;;;21.66;54.94;99506.15;109090;1252;58840;-73
2023/07/24 06:06:17;;;;;;;5.60;4.80;;;;;;;21.74;55.06;99506.95;108789;1253;59141;-76
2023/07/24 06:08:47;;;;;;;5.60;4.30;;;;;;;21.81;54.68;99501.61;108448;1253;72943;-75
2023/07/24 06:11:15;;;;;;;10.90;4.80;;;;;;;21.87;54.64;99494.67;108737;1253;69268;-72
2023/07/24 06:13:42;;;;;;;14.00;5.60;;;;;;;21.95;54.71;99491.30;108431;1252;71904;-76
2023/07/24 06:16:12;;;;;;;6.90;5.40;;;;;;;22.04;54.86;99485.74;108281;1253;60173;-76
2023/07/24 06:18:46;;;;;;;11.70;5.20;;;;;;;22.14;54.53;99486.70;109051;1253;59109;-75
2023/07/24 06:21:13;;;;;;;9.30;5.50;;;;;;;22.23;53.97;99483.47;108900;1253;72225;-75
2023/07/24 06:23:41;;;;;;;11.00;5.70;;;;;;;22.30;53.77;99478.39;108620;1255;69481;-75
2023/07/24 06:26:08;;;;;;;14.00;5.80;;;;;;;22.37;53.56;99477.98;107832;1253;71547;-74
2023/07/24 06:28:34;;;;;;;14.00;5.60;;;;;;;22.43;53.48;99478.44;108174;1252;59593;-75
2023/07/24 06:31:02;;;;;;;12.90;4.90;;;;;;;22.50;53.20;99480.90;108574;1253;60315;-78
2023/07/24 06:33:29;;;;;;;9.60;5.10;;;;;;;22.55;52.91;99478.63;108445;1252;71805;-75
2023/07/24 06:35:55;;;;;;;13.70;5.80;;;;;;;22.60;53.15;99471.20;108036;1253;69168;-76
2023/07/24 06:38:22;;;;;;;13.10;5.20;;;;;;;22.65;53.40;99465.59;109044;1251;71776;-75
2023/07/24 06:40:49;;;;;;;10.80;5.10;;;;;;;22.75;53.42;99461.95;108639;1251;59539;-73
2023/07/24 06:43:15;;;;;;;11.20;5.00;;;;;;;22.87;52.99;99469.29;106452;1256;59637;-75
2023/07/24 06:45:42;;;;;;;11.50;5.50;;;;;;;22.97;52.62;99464.49;106121;1256;73452;-77
2023/07/24 06:48:09;;;;;;;12.50;6.00;;;;;;;23.03;52.77;99454.98;106504;1253;72347;-76
2023/07/24 06:50:36;;;;;;;9.30;5.30;;;;;;;23.11;52.41;99453.11;106015;1253;71813;-77
2023/07/24 06:53:03;;;;;;;14.60;5.50;;;;;;;23.18;52.45;99454.91;105869;1253;60398;-74
2023/07/24 06:55:30;;;;;;;8.60;5.00;;;;;;;23.22;52.12;99457.20;106061;1253;60007;-79
2023/07/24 06:57:56;;;;;;;13.70;5.40;;;;;;;23.25;52.40;99451.17;106987;1250;72818;-78
2023/07/24 07:00:23;;;;;;;9.50;4.80;;;;;;;23.29;52.22;99456.19;108141;1251;68887;-75
2023/07/24 07:02:50;;;;;;;9.20;4.80;;;;;;;23.33;52.11;99458.34;108426;1252;71914;-74
2023/07/24 07:05:17;;;;;;;10.40;5.70;;;;;;;23.35;52.18;99451.37;107128;1253;59616;-75
2023/07/24 07:07:44;;;;;;;6.30;4.90;;;;;;;23.39;51.90;99457.20;108027;1252;59750;-77
2023/07/24 07:10:11;;;;;;;5.70;4.80;;;;;;;23.44;52.24;99451.70;107395;1255;72495;-75
2023/07/24 07:12:38;;;;;;;9.20;5.10;;;;;;;23.51;52.15;99451.69;106737;1251;70793;-76
2023/07/24 07:15:05;;;;;;;7.40;5.20;;;;;;;23.56;52.19;99452.06;106680;1257;72800;-77
2023/07/24 07:17:32;;;;;;;6.50;5.00;;;;;;;23.59;51.94;99458.47;106742;1253;60189;-77
2023/07/24 07:19:59;;;;;;;9.10;5.30;;;;;;;23.58;51.96;99452.55;105980;1253;60520;-75
2023/07/24 07:22:26;;;;;;;6.10;4.70;;;;;;;23.61;51.67;99444.21;106163;1256;73466;-78
2023/07/24 07:24:53;;;;;;;6.50;5.20;;;;;;;23.66;51.17;99453.69;106059;1253;70000;-76
2023/07/24 07:27:19;;;;;;;7.70;4.80;;;;;;;23.71;51.30;99440.98;106118;1253;72879;-76
2023/07/24 07:29:46;;;;;;;5.60;5.00;;;;;;;23.75;51.84;99438.19;106984;1253;60577;-75
2023/07/24 07:32:13;;;;;;;5.50;5.00;;;;;;;23.77;52.01;99444.54;107779;1253;59630;-76
2023/07/24 07:34:40;;;;;;;5.90;5.00;;;;;;;23.79;51.80;99456.73;106115;1253;72049;-76
2023/07/24 07:37:06;;;;;;;7.20;4.70;;;;;;;23.79;51.95;99447.99;105856;1257;70524;-76
2023/07/24 07:39:33;;;;;;;6.00;4.80;;;;;;;23.81;52.02;99455.94;105729;1253;73369;-75
2023/07/24 07:42:00;;;;;;;6.20;5.20;;;;;;;23.84;52.06;99444.23;105760;1251;60226;-75
2023/07/24 07:44:45;;;;;;;7.00;5.30;;;;;;;23.85;52.44;99438.59;106060;1253;59793;-77
2023/07/24 07:47:11;;;;;;;6.10;5.60;;;;;;;23.87;52.33;99442.34;105753;1251;73238;-83
2023/07/24 07:49:40;;;;;;;5.70;5.00;;;;;;;23.88;52.44;99436.44;106138;1253;70609;-76
2023/07/24 07:52:07;;;;;;;6.20;5.60;;;;;;;23.94;52.61;99442.16;105761;1253;72783;-75
2023/07/24 07:54:34;;;;;;;8.30;5.40;;;;;;;24.01;52.67;99428.69;105664;1253;60427;-78
2023/07/24 07:57:01;;;;;;;9.90;5.50;;;;;;;24.10;52.80;99433.45;105803;1253;60031;-75
2023/07/24 07:59:28;;;;;;;9.00;6.20;;;;;;;24.22;52.97;99435.51;107473;1250;73466;-75
2023/07/24 08:01:54;;;;;;;9.00;5.20;;;;;;;24.36;52.43;99440.23;108917;1253;69621;-76
2023/07/24 08:04:21;;;;;;;8.50;6.10;;;;;;;24.46;52.00;99439.55;107843;1253;71656;-76
2023/07/24 08:06:48;;;;;;;7.30;5.40;;;;;;;24.52;52.02;99435.58;106398;1253;60169;-77
2023/07/24 08:09:17;;;;;;;12.70;5.40;;;;;;;24.59;51.58;99432.02;106395;1253;60164;-75
2023/07/24 08:11:44;;;;;;;5.40;4.70;;;;;;;24.68;51.68;99428.71;105900;1255;73257;-79
2023/07/24 08:14:11;;;;;;;5.00;4.50;;;;;;;24.77;51.44;99431.23;106068;1253;71146;-78
2023/07/24 08:16:38;;;;;;;5.50;4.70;;;;;;;24.85;51.28;99434.02;106088;1253;73746;-77
2023/07/24 08:19:04;;;;;;;6.40;5.20;;;;;;;24.94;51.19;99438.48;105739;1253;59731;-78
2023/07/24 08:21:31;;;;;;;5.40;4.30;;;;;;;25.03;50.89;99430.23;105617;1253;60110;-76
2023/07/24 08:23:59;;;;;;;5.40;4.50;;;;;;;25.12;51.23;99427.02;105857;1253;73793;-78
2023/07/24 08:26:26;;;;;;;5.60;5.10;;;;;;;25.20;50.79;99435.34;106634;1253;70468;-76
2023/07/24 08:28:53;;;;;;;6.20;5.00;;;;;;;25.28;50.96;99435.96;108256;1253;73126;-78
2023/07/24 08:31:19;;;;;;;7.00;5.10;;;;;;;25.37;50.90;99428.39;108875;1253;59603;-77
2023/07/24 08:33:46;;;;;;;7.80;4.70;;;;;;;25.46;50.33;99444.98;106800;1254;59672;-73
2023/07/24 08:36:13;;;;;;;6.40;4.70;;;;;;;25.45;50.15;99442.48;105741;1255;71574;-80
2023/07/24 08:38:40;;;;;;;6.50;5.00;;;;;;;25.46;50.40;99433.44;105771;1253;70597;-77
2023/07/24 08:41:09;;;;;;;11.00;5.10;;;;;;;25.56;50.75;99427.55;105835;1253;72891;-77
2023/07/24 08:43:37;;;;;;;4.90;4.40;;;;;;;25.69;50.70;99421.16;105842;1253;60199;-78
2023/07/24 08:46:04;;;;;;;5.70;5.20;;;;;;;25.84;50.51;99418.19;105927;1252;60902;-77
2023/07/24 08:48:41;;;;;;;5.90;5.00;;;;;;;25.96;50.31;99420.23;105874;1253;73941;-79
2023/07/24 08:51:11;;;;;;;5.10;4.70;;;;;;;26.07;50.35;99408.98;105765;1258;69517;-77
2023/07/24 08:53:40;;;;;;;5.90;4.90;;;;;;;26.20;49.67;99418.89;105866;1254;73597;-78
2023/07/24 08:56:08;;;;;;;5.50;4.90;;;;;;;26.30;48.94;99409.81;106155;1257;59627;-79
2023/07/24 08:58:35;;;;;;;6.90;4.90;;;;;;;26.36;48.84;99410.98;107617;1253;60258;-78
2023/07/24 09:01:03;;;;;;;7.40;5.10;;;;;;;26.41;48.83;99411.17;107321;1257;73461;-78
2023/07/24 09:03:30;;;;;;;4.40;4.00;;;;;;;26.49;48.81;99404.14;106964;1255;70744;-77
2023/07/24 09:05:57;;;;;;;8.10;4.50;;;;;;;26.58;48.91;99407.86;105864;1259;71236;-78
2023/07/24 09:08:34;;;;;;;6.70;4.60;;;;;;;26.66;48.51;99420.20;105840;1253;60476;-78
2023/07/24 09:11:02;;;;;;;8.00;5.00;;;;;;;26.67;48.53;99411.48;105823;1253;60686;-78
2023/07/24 09:13:30;;;;;;;5.10;4.60;;;;;;;26.70;48.28;99405.78;105904;1258;74091;-77
2023/07/24 09:15:59;;;;;;;6.30;4.90;;;;;;;26.85;48.50;99389.33;105991;1253;70487;-76
2023/07/24 09:18:25;;;;;;;5.10;4.70;;;;;;;27.10;48.41;99392.55;106871;1253;73408;-76
2023/07/24 09:20:52;;;;;;;6.10;4.50;;;;;;;27.36;47.83;99394.67;106360;1253;60473;-75
2023/07/24 09:23:27;;;;;;;5.40;4.70;;;;;;;27.58;47.18;99392.00;106267;1253;60362;-78
2023/07/24 09:25:54;;;;;;;5.00;4.60;;;;;;;27.81;45.57;99391.92;105864;1257;73664;-76
2023/07/24 09:28:21;;;;;;;7.20;4.90;;;;;;;27.92;45.73;99385.92;106392;1253;70941;-79
2023/07/24 09:30:56;;;;;;;6.70;4.70;;;;;;;28.14;45.57;99382.27;107259;1253;72877;-77
2023/07/24 09:33:24;;;;;;;5.90;5.00;;;;;;;28.50;45.08;99382.92;107126;1253;60392;-78
2023/07/24 09:36:01;;;;;;;4.70;4.30;;;;;;;28.85;44.17;99378.66;105973;1253;60678;-79
2023/07/24 09:38:28;;;;;;;5.70;5.20;;;;;;;29.10;43.85;99373.77;105891;1257;72920;-75
2023/07/24 09:40:55;;;;;;;5.00;4.50;;;;;;;29.23;43.36;99374.89;105796;1253;71184;-76
2023/07/24 09:43:24;;;;;;;5.30;4.90;;;;;;;29.39;43.29;99378.71;105754;1257;71935;-78
2023/07/24 09:45:54;;;;;;;5.40;4.80;;;;;;;29.60;42.89;99373.66;105843;1258;60400;-77
2023/07/24 09:48:22;;;;;;;5.20;4.60;;;;;;;29.85;42.63;99368.82;106122;1256;60537;-78
2023/07/24 09:50:57;;;;;;;5.50;5.00;;;;;;;30.09;41.96;99367.26;106030;1253;74390;-78
2023/07/24 09:53:23;;;;;;;5.00;4.50;;;;;;;30.28;42.21;99356.00;105716;1256;70660;-76
2023/07/24 09:56:04;;;;;;;5.20;4.60;;;;;;;30.65;41.83;99358.33;105635;1253;73751;-78
2023/07/24 09:58:34;;;;;;;5.50;5.00;;;;;;;31.15;40.82;99349.16;106763;1253;60429;-78
2023/07/24 10:01:08;;;;;;;5.00;4.50;;;;;;;31.47;39.88;99363.92;108290;1253;60416;-79
2023/07/24 10:03:38;;;;;;;5.70;4.50;;;;;;;31.60;39.92;99348.91;107224;1252;73598;-79
2023/07/24 10:06:12;;;;;;;5.10;4.60;;;;;;;31.77;40.13;99340.28;106061;1253;70132;-78
2023/07/24 10:08:39;;;;;;;6.30;5.10;;;;;;;32.09;39.66;99334.42;106041;1253;73495;-78
2023/07/24 10:11:07;;;;;;;6.10;4.70;;;;;;;32.38;39.26;99331.55;105958;1254;60601;-76
2023/07/24 10:13:36;;;;;;;7.70;5.30;;;;;;;32.69;38.24;99335.46;106536;1253;60521;-77
2023/07/24 10:16:06;;;;;;;4.90;4.50;;;;;;;33.00;38.08;99334.55;106087;1257;73874;-79
2023/07/24 10:18:35;;;;;;;5.30;4.70;;;;;;;33.26;37.89;99337.15;106044;1253;70201;-77
2023/07/24 10:21:07;;;;;;;5.40;4.80;;;;;;;33.36;37.62;99334.20;106110;1252;72481;-78
2023/07/24 10:23:35;;;;;;;5.40;4.50;;;;;;;33.40;37.72;99328.70;105888;1253;60529;-78
2023/07/24 10:26:03;;;;;;;6.10;5.60;;;;;;;33.46;37.14;99332.79;106422;1253;60857;-80
2023/07/24 10:28:32;;;;;;;5.40;4.50;;;;;;;33.47;37.23;99323.96;107673;1251;73688;-77
2023/07/24 10:31:01;;;;;;;5.20;4.80;;;;;;;33.52;36.95;99334.52;107588;1253;71134;-77
2023/07/24 10:33:31;;;;;;;5.40;5.00;;;;;;;33.41;36.78;99330.94;107137;1253;72792;-80
2023/07/24 10:36:10;;;;;;;4.90;4.50;;;;;;;33.17;36.98;99327.85;106343;1252;60575;-77
2023/07/24 10:38:39;;;;;;;5.80;4.80;;;;;;;33.11;36.87;99316.74;106502;1253;60749;-78
2023/07/24 10:41:07;;;;;;;7.10;5.10;;;;;;;33.27;36.20;99324.16;107108;1252;72938;-77
2023/07/24 10:43:45;;;;;;;6.60;5.30;;;;;;;33.31;34.94;99333.70;107801;1253;70142;-75
2023/07/24 10:46:17;;;;;;;7.00;4.60;;;;;;;33.17;35.26;99318.95;107166;1255;71774;-78
2023/07/24 10:48:48;;;;;;;6.40;5.30;;;;;;;33.13;35.73;99322.90;106365;1253;60454;-79
2023/07/24 10:51:15;;;;;;;6.10;5.30;;;;;;;33.20;36.21;99319.31;107014;1253;60668;-76
2023/07/24 10:53:45;;;;;;;5.60;5.10;;;;;;;33.33;35.00;99319.22;106810;1253;72564;-78
2023/07/24 10:56:12;;;;;;;5.80;4.80;;;;;;;33.22;35.44;99318.67;106587;1253;70630;-78
2023/07/24 10:58:39;;;;;;;7.00;5.70;;;;;;;33.14;35.29;99307.58;106961;1253;72820;-78
2023/07/24 11:01:07;;;;;;;6.50;5.30;;;;;;;33.06;35.61;99304.17;108538;1253;60640;-79
2023/07/24 11:03:40;;;;;;;5.80;5.10;;;;;;;33.01;35.56;99308.27;107199;1258;60438;-79
2023/07/24 11:06:16;;;;;;;6.20;5.60;;;;;;;32.85;36.00;99309.73;106408;1253;72469;-80
2023/07/24 11:08:50;;;;;;;5.60;5.10;;;;;;;32.78;36.01;99304.23;106207;1253;70163;-79
2023/07/24 11:11:17;;;;;;;6.20;5.00;;;;;;;32.78;35.77;99299.89;106131;1251;72609;-79
2023/07/24 11:13:44;;;;;;;5.80;5.20;;;;;;;32.78;36.27;99304.61;107187;1253;61574;-79
2023/07/24 11:16:11;;;;;;;5.50;5.00;;;;;;;32.78;35.90;99293.92;106178;1253;60500;-78
2023/07/24 11:18:48;;;;;;;6.80;5.20;;;;;;;32.76;35.44;99289.48;106210;1253;74667;-77
2023/07/24 11:21:23;;;;;;;6.60;5.90;;;;;;;32.74;35.31;99292.75;106324;1253;68831;-77
2023/07/24 11:23:54;;;;;;;5.70;5.10;;;;;;;32.58;35.23;99287.95;105696;1257;72962;-81
2023/07/24 11:26:22;;;;;;;5.30;4.50;;;;;;;32.35;35.73;99282.06;106468;1251;60502;-79
2023/07/24 11:28:50;;;;;;;6.20;5.60;;;;;;;32.23;35.64;99281.55;106094;1258;60467;-78
2023/07/24 11:31:20;;;;;;;6.10;5.50;;;;;;;32.17;35.41;99282.85;107130;1253;73833;-77